163-й км МНП

Карта отелей и гостиниц, располагающихся рядом с аэропортом 163-й км МНП :

163-й км МНП Республика Коми 65° 4' 39.7812" N, 57° 13' 56.1" E
163-й км МНП Республика Коми 65° 4' 39.7812" N, 57° 13' 56.1" E
Код аэродрома ИКАО
UUPM
Код аэродрома RU
УУПМ
Координаты
N65.07772° E057.23225°
Превышение над уровнем моря
65
Основная полоса
10/28
Курс магнитный
099,6/279,6
Длина основной ВПП
30
Ширина основной ВПП
25
Покрытие основной ВПП
Твёрдое (бетон)
Освещение ВПП
Нет
Тип: 
Вертодром
Класс аэродрома: 
Принадлежность: 
ГА
Статус: 
Действующий
Сайт: 
E-mail аэродрома: 
Страна: 
Россия
Регион: 
Республика Коми
Город: 
Дополнительная информация: 
Оператор: Нефте-перекачивающая станция (НПС) "Печора".

Найти трансфер

С помощью этой формы Вы можете найти трансфер из аэропорта 163-й км МНП в город, аэропорт или вокзал:

Карта места

Javascript is required to view this map.

Погода в аэропортах:

Авиационная погода в Ужгороде

Регион: 
Погода METAR: 
UKLU 060800Z 00000MPS 2800 -RA BR OVC028 02/02 Q1005 NOSIG
Время наблюдения
2021-12-06T08:00:00Z
Температура C
2.0
Точка росы
2.0
Направление ветра
0
Скорость ветра (узлы)
0
Метео видимость
1.74
Явления погоды
-RA BR
Условия полета
IFR
Аэропорт подробнее: 

Авиационная погода в Борисполе

Регион: 
Погода METAR: 
UKBB 060700Z 12004MPS 2500 BR OVC003 M00/M01 Q1012 TEMPO 2100 -FZRA -SHSN BKN002 SCT012CB
Время наблюдения
2021-12-06T07:00:00Z
Температура C
0.0
Точка росы
-1.0
Направление ветра
120
Скорость ветра (узлы)
8
Метео видимость
1.55
Явления погоды
BR
Условия полета
LIFR
Аэропорт подробнее: 

Авиационная погода в Екатеринбурге

Регион: 
Погода METAR: 
USSS 060700Z 31006MPS 9999 -SHSN BKN029CB M07/M10 Q1015 R26L/410245 NOSIG RMK QFE741/0988
Время наблюдения
2021-12-06T07:00:00Z
Температура C
-7.0
Точка росы
-10.0
Направление ветра
310
Скорость ветра (узлы)
12
Метео видимость
6.21
Явления погоды
-SHSN
Условия полета
MVFR
Аэропорт подробнее: 

Авиационная погода в аэропорту Центральный

Регион: 
Погода METAR: 
UNOO 060700Z 22003MPS 6000 -SHSN BKN007 BKN033CB M02/M02 Q1015 R25/590140 NOSIG RMK QFE753
Время наблюдения
2021-12-06T07:00:00Z
Температура C
-2.0
Точка росы
-2.0
Направление ветра
220
Скорость ветра (узлы)
6
Метео видимость
3.73
Явления погоды
-SHSN
Условия полета
IFR
Аэропорт подробнее: